Time;durP1;ratioP1;P1;durP2;ratioP2;P2;SDS_P1;SDS_P2;PMS_P1;PMS_P2;Temp;Humidity;BMP_temperature;BMP_pressure;BME280_temperature;BME280_humidity;BME280_pressure;Samples;Min_cycle;Max_cycle;Signal;HPM_P1;HPM_P2
2021/11/25 00:01:57;;;;;;;27.98;17.82;;;;;;;1.54;83.04;100225.12;1765616;81;21073;-82
2021/11/25 00:04:24;;;;;;;28.00;18.25;;;;;;;1.51;83.29;100216.59;1765574;81;21013;-82
2021/11/25 00:06:50;;;;;;;32.65;18.65;;;;;;;1.48;83.36;100218.00;1739927;80;21045;-82
2021/11/25 00:09:16;;;;;;;28.25;18.82;;;;;;;1.46;83.26;100209.43;1757938;80;20961;-83
2021/11/25 00:11:43;;;;;;;33.63;19.92;;;;;;;1.43;83.42;100208.24;1756176;80;20934;-83
2021/11/25 00:14:09;;;;;;;29.55;18.65;;;;;;;1.39;83.49;100203.15;1759209;81;20968;-82
2021/11/25 00:16:35;;;;;;;32.55;19.77;;;;;;;1.35;83.42;100203.30;1753792;81;21019;-83
2021/11/25 00:19:01;;;;;;;30.92;19.37;;;;;;;1.32;83.38;100203.44;1750788;81;21005;-82
2021/11/25 00:21:27;;;;;;;35.55;21.37;;;;;;;1.27;83.47;100202.75;1747615;81;20966;-82
2021/11/25 00:23:54;;;;;;;33.45;21.77;;;;;;;1.21;83.57;100197.31;1747764;81;20950;-83
2021/11/25 00:26:20;;;;;;;31.60;19.35;;;;;;;1.17;83.57;100202.23;1747362;81;21960;-82
2021/11/25 00:28:46;;;;;;;34.53;20.72;;;;;;;1.13;83.57;100191.55;1747480;81;21599;-83
2021/11/25 00:31:12;;;;;;;33.55;20.92;;;;;;;1.08;83.51;100189.55;1757057;81;20982;-83
2021/11/25 00:33:39;;;;;;;33.10;18.55;;;;;;;1.03;83.69;100184.99;1760638;81;20970;-82
2021/11/25 00:36:06;;;;;;;35.35;18.95;;;;;;;1.00;83.92;100186.40;1745428;81;21064;-82
2021/11/25 00:38:32;;;;;;;38.02;19.37;;;;;;;0.96;83.94;100186.95;1747727;81;21006;-82
2021/11/25 00:41:00;;;;;;;35.30;19.98;;;;;;;0.93;83.98;100185.31;1737881;81;20995;-83
2021/11/25 00:43:26;;;;;;;32.58;18.40;;;;;;;0.91;83.96;100183.20;1738731;81;21500;-82
2021/11/25 00:45:52;;;;;;;31.45;19.55;;;;;;;0.88;84.07;100179.41;1748229;81;20990;-82
2021/11/25 00:48:19;;;;;;;37.75;20.25;;;;;;;0.84;83.95;100175.23;1753516;81;21005;-82
2021/11/25 00:50:46;;;;;;;31.75;18.98;;;;;;;0.79;84.18;100168.49;1766985;81;21029;-82
2021/11/25 00:53:15;;;;;;;36.38;20.52;;;;;;;0.76;84.27;100170.77;1759677;81;21006;-82
2021/11/25 00:55:42;;;;;;;38.58;20.97;;;;;;;0.70;84.37;100162.73;1767944;81;21021;-82
2021/11/25 00:58:09;;;;;;;36.80;19.87;;;;;;;0.66;84.79;100159.01;1760847;81;20938;-82
2021/11/25 01:00:36;;;;;;;36.88;20.08;;;;;;;0.62;85.19;100159.53;1758569;81;21006;-82
2021/11/25 01:03:02;;;;;;;37.10;19.55;;;;;;;0.59;85.34;100154.90;1749686;81;21488;-82
2021/11/25 01:05:28;;;;;;;33.73;18.55;;;;;;;0.56;85.38;100151.11;1749074;81;21029;-82
2021/11/25 01:07:55;;;;;;;36.30;20.12;;;;;;;0.54;85.85;100146.44;1766965;81;21002;-82
2021/11/25 01:10:23;;;;;;;29.65;18.42;;;;;;;0.51;85.97;100143.48;1764928;81;20989;-82
2021/11/25 01:12:52;;;;;;;34.25;19.75;;;;;;;0.50;86.22;100140.95;1750144;81;21547;-82
2021/11/25 01:15:28;;;;;;;32.15;18.20;;;;;;;0.48;86.22;100138.85;1722520;80;20996;-82
2021/11/25 01:17:49;;;;;;;32.88;18.42;;;;;;;0.45;86.43;100135.45;1763211;80;21048;-82
2021/11/25 01:20:17;;;;;;;31.50;18.87;;;;;;;0.43;86.51;100128.19;1759525;80;20961;-82
2021/11/25 01:22:45;;;;;;;33.70;20.20;;;;;;;0.41;86.53;100127.83;1764304;81;20922;-82
2021/11/25 01:25:11;;;;;;;36.53;20.32;;;;;;;0.39;86.61;100130.46;1752618;80;21002;-82
2021/11/25 01:27:39;;;;;;;32.42;18.90;;;;;;;0.37;86.84;100123.19;1756766;81;20930;-82
2021/11/25 01:30:08;;;;;;;33.20;17.87;;;;;;;0.36;87.03;100120.20;1766775;81;21452;-82
2021/11/25 01:32:35;;;;;;;31.75;18.55;;;;;;;0.35;87.02;100114.59;1765418;81;21456;-82
2021/11/25 01:35:01;;;;;;;33.18;20.68;;;;;;;0.33;87.00;100112.52;1756790;81;21491;-82
2021/11/25 01:37:28;;;;;;;30.43;18.48;;;;;;;0.30;87.00;100113.08;1747892;82;21009;-82
2021/11/25 01:39:55;;;;;;;35.65;19.17;;;;;;;0.27;86.85;100104.94;1756600;81;21049;-82
2021/11/25 01:42:22;;;;;;;31.80;19.20;;;;;;;0.25;86.91;100105.43;1768030;81;20994;-82
2021/11/25 01:44:49;;;;;;;35.23;21.00;;;;;;;0.23;87.01;100099.01;1768837;81;21523;-82
2021/11/25 01:47:16;;;;;;;30.17;18.67;;;;;;;0.22;86.90;100102.94;1766885;81;20990;-82
2021/11/25 01:49:42;;;;;;;30.65;19.37;;;;;;;0.20;86.85;100090.48;1760811;81;20931;-82
2021/11/25 01:52:09;;;;;;;31.82;18.95;;;;;;;0.18;86.90;100082.73;1748271;81;20974;-82
2021/11/25 01:54:35;;;;;;;29.45;18.52;;;;;;;0.19;86.86;100079.68;1765397;81;20946;-82
2021/11/25 01:57:02;;;;;;;27.42;18.62;;;;;;;0.15;86.73;100078.94;1767248;81;21058;-82
2021/11/25 01:59:28;;;;;;;34.23;20.30;;;;;;;0.14;86.85;100076.41;1748805;81;21032;-82
2021/11/25 02:01:55;;;;;;;34.98;20.57;;;;;;;0.11;86.80;100078.66;1759820;81;21449;-82
2021/11/25 02:04:23;;;;;;;35.55;22.15;;;;;;;0.10;86.75;100074.37;1760945;81;20978;-82
2021/11/25 02:06:49;;;;;;;40.40;23.15;;;;;;;0.08;86.84;100069.67;1747867;81;21088;-82
2021/11/25 02:09:16;;;;;;;39.23;22.32;;;;;;;0.07;86.87;100069.28;1757017;81;20994;-82
2021/11/25 02:11:42;;;;;;;35.00;22.82;;;;;;;0.04;86.90;100060.76;1767353;81;21001;-82
2021/11/25 02:14:08;;;;;;;41.83;22.82;;;;;;;0.00;87.01;100054.83;1758666;81;21459;-82
2021/11/25 02:16:36;;;;;;;34.30;20.77;;;;;;;-0.03;86.95;100057.06;1759147;81;20986;-82
2021/11/25 02:19:03;;;;;;;34.90;19.92;;;;;;;-0.05;87.08;100054.96;1768053;81;21029;-82
2021/11/25 02:21:30;;;;;;;34.65;21.97;;;;;;;-0.03;87.13;100054.47;1758619;81;21447;-83
2021/11/25 02:23:57;;;;;;;34.65;20.25;;;;;;;-0.05;86.96;100041.99;1758955;81;21024;-82
2021/11/25 02:26:23;;;;;;;35.78;20.40;;;;;;;-0.06;86.83;100043.36;1748326;81;20954;-82
2021/11/25 02:28:49;;;;;;;37.00;23.12;;;;;;;-0.09;86.99;100031.33;1749878;81;21033;-82
2021/11/25 02:31:15;;;;;;;38.83;21.50;;;;;;;-0.10;86.96;100039.14;1763421;81;21001;-82
2021/11/25 02:33:43;;;;;;;38.02;21.45;;;;;;;-0.11;86.99;100029.67;1757423;81;20977;-83
2021/11/25 02:36:09;;;;;;;35.48;20.05;;;;;;;-0.12;87.03;100034.48;1752538;81;21554;-82
2021/11/25 02:38:36;;;;;;;36.13;22.42;;;;;;;-0.14;87.13;100025.89;1755247;81;21429;-83
2021/11/25 02:41:03;;;;;;;35.05;21.60;;;;;;;-0.14;87.16;100020.70;1753328;81;20978;-83
2021/11/25 02:43:33;;;;;;;34.92;20.40;;;;;;;-0.17;86.98;100023.39;1767560;81;20974;-83
2021/11/25 02:46:07;;;;;;;33.48;19.67;;;;;;;-0.20;87.00;100011.37;1747559;81;20974;-82
2021/11/25 02:48:51;;;;;;;39.08;21.70;;;;;;;-0.23;86.98;100005.02;1749105;81;21310;-82
2021/11/25 02:51:22;;;;;;;35.08;20.85;;;;;;;-0.29;86.87;100003.92;1738540;81;21471;-83
2021/11/25 02:53:48;;;;;;;36.30;22.00;;;;;;;-0.34;87.15;100003.20;1748856;81;21077;-83
2021/11/25 02:56:19;;;;;;;36.08;22.42;;;;;;;-0.38;87.19;99989.50;1758676;81;20962;-82
2021/11/25 02:58:47;;;;;;;38.85;22.00;;;;;;;-0.41;87.28;99989.60;1765475;81;21461;-83
2021/11/25 03:01:28;;;;;;;36.05;22.20;;;;;;;-0.44;87.30;99983.22;1765487;81;20994;-82
2021/11/25 03:03:55;;;;;;;37.20;21.35;;;;;;;-0.47;87.28;99979.43;1718297;82;21042;-82
2021/11/25 03:06:22;;;;;;;34.90;22.42;;;;;;;-0.49;87.47;99984.68;1762133;81;21036;-83
2021/11/25 03:08:48;;;;;;;37.35;23.02;;;;;;;-0.48;87.47;99977.75;1722013;80;20992;-83
2021/11/25 03:11:19;;;;;;;39.27;21.05;;;;;;;-0.50;87.50;99973.89;1742498;80;21510;-83
2021/11/25 03:13:50;;;;;;;44.60;23.00;;;;;;;-0.49;87.43;99974.31;1756227;80;20981;-82
2021/11/25 03:16:18;;;;;;;40.38;22.67;;;;;;;-0.49;87.46;99965.69;1763400;80;21021;-83
2021/11/25 03:18:45;;;;;;;37.78;23.62;;;;;;;-0.51;87.45;99965.73;1748246;80;21492;-83
2021/11/25 03:21:15;;;;;;;39.48;22.65;;;;;;;-0.51;87.59;99962.30;1747504;81;21010;-83
2021/11/25 03:23:41;;;;;;;33.63;21.57;;;;;;;-0.53;87.44;99956.30;1749130;81;21065;-83
2021/11/25 03:26:09;;;;;;;41.18;23.62;;;;;;;-0.55;87.64;99944.70;1765066;81;20977;-84
2021/11/25 03:28:42;;;;;;;37.23;21.77;;;;;;;-0.55;87.64;99942.11;1766820;81;21056;-84
2021/11/25 03:31:05;;;;;;;42.27;24.50;;;;;;;-0.56;87.60;99939.13;1747301;81;21006;-83
2021/11/25 03:33:34;;;;;;;43.70;24.20;;;;;;;-0.55;87.54;99942.56;1760884;81;21409;-84
2021/11/25 03:36:03;;;;;;;44.20;24.30;;;;;;;-0.57;87.52;99924.91;1747000;81;20966;-83
2021/11/25 03:38:30;;;;;;;41.35;23.90;;;;;;;-0.58;87.55;99926.66;1765201;81;20994;-84
2021/11/25 03:40:57;;;;;;;45.28;24.98;;;;;;;-0.59;87.46;99917.20;1755911;81;20993;-83
2021/11/25 03:43:24;;;;;;;40.38;23.45;;;;;;;-0.62;87.19;99913.86;1768961;81;21487;-83
2021/11/25 03:45:50;;;;;;;44.30;25.43;;;;;;;-0.67;87.13;99911.41;1766352;81;20986;-83
2021/11/25 03:48:17;;;;;;;44.80;26.15;;;;;;;-0.73;87.17;99905.97;1767108;81;20998;-83
2021/11/25 03:50:44;;;;;;;46.98;27.42;;;;;;;-0.80;87.30;99899.30;1749318;81;20958;-83
2021/11/25 03:53:10;;;;;;;43.78;24.98;;;;;;;-0.85;87.39;99897.78;1760915;81;21010;-83
2021/11/25 03:55:37;;;;;;;41.83;24.52;;;;;;;-0.91;87.51;99892.34;1766908;81;21468;-83
2021/11/25 03:58:04;;;;;;;43.42;25.20;;;;;;;-0.97;87.64;99887.35;1749072;81;20993;-83
2021/11/25 04:00:32;;;;;;;46.05;26.73;;;;;;;-1.00;87.75;99880.98;1752072;81;21014;-83
2021/11/25 04:03:00;;;;;;;44.67;25.43;;;;;;;-1.04;87.95;99871.62;1756711;81;21295;-83
2021/11/25 04:05:26;;;;;;;45.28;24.50;;;;;;;-1.08;87.95;99873.46;1768318;81;20978;-83
2021/11/25 04:07:52;;;;;;;44.25;25.15;;;;;;;-1.11;88.17;99871.42;1757097;81;20930;-83
2021/11/25 04:10:19;;;;;;;45.70;25.12;;;;;;;-1.10;88.23;99870.52;1758431;81;21010;-83
2021/11/25 04:12:45;;;;;;;41.15;25.77;;;;;;;-1.13;88.18;99866.73;1758247;81;20988;-83
2021/11/25 04:15:14;;;;;;;45.75;26.68;;;;;;;-1.15;88.26;99864.63;1758383;81;20974;-83
2021/11/25 04:17:40;;;;;;;44.58;25.88;;;;;;;-1.19;88.34;99854.36;1768907;81;20942;-83
2021/11/25 04:20:08;;;;;;;44.05;25.37;;;;;;;-1.19;88.49;99854.81;1759369;81;20974;-83
2021/11/25 04:22:34;;;;;;;47.78;27.13;;;;;;;-1.21;88.48;99847.11;1734729;81;20978;-83
2021/11/25 04:25:00;;;;;;;44.65;26.45;;;;;;;-1.23;88.52;99841.58;1748581;81;21451;-83
2021/11/25 04:27:27;;;;;;;49.63;26.68;;;;;;;-1.25;88.54;99835.16;1749112;81;20994;-83
2021/11/25 04:30:09;;;;;;;55.15;30.17;;;;;;;-1.26;88.59;99836.04;1750932;81;20919;-83
2021/11/25 04:35:29;;;;;;;53.10;28.02;;;;;;;-1.28;88.81;99826.66;1749379;81;21078;-83
2021/11/25 04:38:09;;;;;;;47.95;29.67;;;;;;;-1.30;88.88;99828.44;1760171;81;21044;-83
2021/11/25 04:40:43;;;;;;;51.92;27.32;;;;;;;-1.31;88.96;99821.58;1735821;82;21028;-83
2021/11/25 04:43:11;;;;;;;49.90;33.18;;;;;;;-1.32;89.08;99825.03;1727446;81;28331;-83
2021/11/25 04:45:41;;;;;;;49.23;30.32;;;;;;;-1.29;89.19;99818.02;1759753;81;21006;-83
2021/11/25 04:48:09;;;;;;;47.45;26.90;;;;;;;-1.25;89.08;99807.98;1739786;80;20954;-83
2021/11/25 04:50:37;;;;;;;47.20;27.65;;;;;;;-1.23;89.08;99804.88;1745008;81;21518;-83
2021/11/25 04:53:03;;;;;;;51.90;28.55;;;;;;;-1.23;88.96;99798.41;1762323;80;20985;-83
2021/11/25 04:55:30;;;;;;;49.33;28.67;;;;;;;-1.23;89.03;99791.93;1768211;81;20994;-83
2021/11/25 04:57:56;;;;;;;47.08;27.80;;;;;;;-1.19;88.87;99786.20;1743525;80;20986;-83
2021/11/25 05:00:23;;;;;;;44.93;25.70;;;;;;;-1.20;88.79;99784.52;1764057;81;20998;-83
2021/11/25 05:02:50;;;;;;;49.70;28.25;;;;;;;-1.20;88.75;99781.93;1741161;80;21037;-83
2021/11/25 05:05:16;;;;;;;51.28;27.67;;;;;;;-1.20;88.79;99780.64;1755992;80;21028;-83
2021/11/25 05:07:43;;;;;;;47.35;28.07;;;;;;;-1.21;88.64;99776.36;1728119;81;21457;-83
2021/11/25 05:10:12;;;;;;;45.28;26.10;;;;;;;-1.24;88.47;99776.47;1755837;81;21528;-83
2021/11/25 05:12:38;;;;;;;44.27;25.50;;;;;;;-1.24;88.74;99772.58;1759242;81;21046;-83
2021/11/25 05:15:13;;;;;;;48.42;28.30;;;;;;;-1.25;88.74;99760.52;1764765;81;21476;-83
2021/11/25 05:17:40;;;;;;;47.35;28.10;;;;;;;-1.24;88.72;99773.88;1767226;81;21026;-83
2021/11/25 05:20:10;;;;;;;52.10;27.95;;;;;;;-1.24;88.70;99773.42;1737488;82;21005;-83
2021/11/25 05:22:37;;;;;;;48.55;29.85;;;;;;;-1.24;88.50;99772.58;1760304;81;21042;-83
2021/11/25 05:25:05;;;;;;;48.68;29.05;;;;;;;-1.26;88.70;99765.30;1766318;81;21037;-83
2021/11/25 05:27:31;;;;;;;49.90;26.97;;;;;;;-1.26;88.68;99762.26;1752190;81;21024;-83
2021/11/25 05:29:58;;;;;;;50.75;29.82;;;;;;;-1.28;88.39;99759.34;1759948;81;20943;-83
2021/11/25 05:32:24;;;;;;;54.50;29.25;;;;;;;-1.33;88.43;99752.17;1768527;81;20995;-83
2021/11/25 05:34:50;;;;;;;52.90;28.85;;;;;;;-1.37;88.55;99756.60;1768889;81;21283;-83
2021/11/25 05:37:18;;;;;;;51.53;31.12;;;;;;;-1.42;88.48;99746.83;1768469;81;20954;-83
2021/11/25 05:39:45;;;;;;;59.38;36.38;;;;;;;-1.44;88.80;99748.64;1768871;81;20997;-83
2021/11/25 05:42:12;;;;;;;52.93;34.00;;;;;;;-1.46;89.00;99747.39;1768646;81;21058;-83
2021/11/25 05:44:42;;;;;;;55.03;34.25;;;;;;;-1.49;89.08;99750.52;1768610;81;21017;-83
2021/11/25 05:47:06;;;;;;;50.95;30.10;;;;;;;-1.51;89.22;99748.45;1767998;81;21006;-83
2021/11/25 05:49:33;;;;;;;51.10;31.52;;;;;;;-1.53;89.30;99746.35;1768633;81;20990;-82
2021/11/25 05:51:59;;;;;;;50.00;30.45;;;;;;;-1.56;89.42;99743.86;1768800;81;20975;-82
2021/11/25 05:54:25;;;;;;;48.33;31.55;;;;;;;-1.59;89.54;99738.78;1768874;81;20946;-82
2021/11/25 05:56:51;;;;;;;49.53;30.37;;;;;;;-1.62;89.67;99741.02;1768584;81;21030;-82
2021/11/25 05:59:18;;;;;;;52.05;29.48;;;;;;;-1.65;89.80;99738.52;1768870;81;21009;-82
2021/11/25 06:01:44;;;;;;;50.95;28.32;;;;;;;-1.66;89.72;99735.55;1768401;81;21469;-82
2021/11/25 06:04:10;;;;;;;50.95;29.32;;;;;;;-1.68;89.69;99737.33;1769165;81;21456;-82
2021/11/25 06:06:36;;;;;;;59.15;37.63;;;;;;;-1.69;89.53;99731.76;1768436;81;21409;-82
2021/11/25 06:09:03;;;;;;;57.95;36.30;;;;;;;-1.70;89.63;99737.38;1768830;81;21532;-82
2021/11/25 06:11:29;;;;;;;63.78;36.95;;;;;;;-1.71;89.47;99737.00;1768784;81;20971;-82
2021/11/25 06:13:55;;;;;;;54.63;34.27;;;;;;;-1.69;89.53;99738.23;1759631;81;20981;-82
2021/11/25 06:16:22;;;;;;;51.70;32.50;;;;;;;-1.67;89.46;99739.03;1769314;80;20972;-82
2021/11/25 06:18:48;;;;;;;54.05;33.13;;;;;;;-1.67;89.44;99738.59;1783482;80;21508;-82
2021/11/25 06:21:14;;;;;;;52.33;31.25;;;;;;;-1.72;89.23;99730.56;1752059;80;21028;-82
2021/11/25 06:23:41;;;;;;;55.92;30.23;;;;;;;-1.78;89.44;99726.87;1781860;80;22243;-82
2021/11/25 06:26:08;;;;;;;64.25;34.25;;;;;;;-1.80;89.69;99733.85;1754087;80;21022;-82
2021/11/25 06:28:34;;;;;;;57.90;34.20;;;;;;;-1.82;89.82;99729.16;1748417;82;21037;-82
2021/11/25 06:31:00;;;;;;;59.77;36.30;;;;;;;-1.85;89.93;99746.06;1747845;82;20963;-82
2021/11/25 06:33:26;;;;;;;62.78;35.38;;;;;;;-1.88;90.03;99737.95;1748451;82;21006;-82
2021/11/25 06:35:53;;;;;;;65.80;36.17;;;;;;;-1.89;90.03;99737.11;1748097;82;20959;-82
2021/11/25 06:38:20;;;;;;;69.92;40.92;;;;;;;-1.90;90.14;99738.47;1748283;81;21488;-82
2021/11/25 06:40:48;;;;;;;69.27;39.65;;;;;;;-1.90;90.29;99735.42;1748243;81;21061;-82
2021/11/25 06:43:15;;;;;;;76.53;44.00;;;;;;;-1.89;90.30;99733.69;1747956;82;20987;-82
2021/11/25 06:45:42;;;;;;;68.80;42.48;;;;;;;-1.89;90.24;99726.77;1747960;81;20998;-82
2021/11/25 06:48:09;;;;;;;69.65;38.60;;;;;;;-1.88;90.30;99732.78;1747897;81;21061;-82
2021/11/25 06:50:36;;;;;;;67.17;38.28;;;;;;;-1.86;90.33;99732.75;1748186;82;21507;-82
2021/11/25 06:53:03;;;;;;;81.53;46.28;;;;;;;-1.87;90.40;99733.65;1748339;81;21037;-82
2021/11/25 06:55:29;;;;;;;131.85;75.10;;;;;;;-1.88;90.26;99723.72;1747967;81;21009;-82
2021/11/25 06:57:55;;;;;;;120.62;64.95;;;;;;;-1.87;90.37;99726.73;1748552;82;20975;-82
2021/11/25 07:00:26;;;;;;;96.37;49.63;;;;;;;-1.85;90.37;99724.08;1756002;80;21024;-82
2021/11/25 07:02:53;;;;;;;99.00;45.43;;;;;;;-1.86;90.38;99721.95;1759394;80;21005;-82
2021/11/25 07:05:21;;;;;;;85.55;48.00;;;;;;;-1.87;90.46;99718.98;1747775;81;21014;-82
2021/11/25 07:07:48;;;;;;;90.60;44.00;;;;;;;-1.85;90.60;99722.34;1727375;80;21043;-82
2021/11/25 07:10:14;;;;;;;89.42;44.03;;;;;;;-1.83;90.50;99718.42;1715196;84;21552;-82
2021/11/25 07:12:41;;;;;;;79.60;43.08;;;;;;;-1.83;90.68;99711.96;1714946;83;21463;-82
2021/11/25 07:15:10;;;;;;;83.22;42.85;;;;;;;-1.82;90.73;99720.11;1746124;82;20993;-82
2021/11/25 07:17:37;;;;;;;70.45;38.38;;;;;;;-1.79;90.87;99721.31;1747886;82;21519;-82
2021/11/25 07:20:04;;;;;;;57.90;31.35;;;;;;;-1.75;90.87;99726.33;1748280;82;21029;-82
2021/11/25 07:22:33;;;;;;;59.05;31.62;;;;;;;-1.74;90.94;99725.45;1748204;82;20979;-82
2021/11/25 07:24:58;;;;;;;50.63;27.90;;;;;;;-1.68;91.26;99712.75;1747823;81;21010;-82
2021/11/25 07:27:25;;;;;;;48.95;29.95;;;;;;;-1.59;91.53;99720.67;1748310;82;21009;-81
2021/11/25 07:29:51;;;;;;;44.10;26.20;;;;;;;-1.50;91.65;99719.92;1748127;82;21032;-82
2021/11/25 07:32:18;;;;;;;55.70;33.67;;;;;;;-1.40;91.62;99718.33;1748145;82;21534;-82
2021/11/25 07:34:44;;;;;;;54.05;33.85;;;;;;;-1.32;91.58;99716.31;1748004;82;21691;-82
2021/11/25 07:37:11;;;;;;;47.00;30.50;;;;;;;-1.27;91.50;99706.67;1748130;82;20962;-81
2021/11/25 07:39:37;;;;;;;45.40;28.23;;;;;;;-1.19;91.68;99700.31;1748438;82;21563;-82
2021/11/25 07:42:04;;;;;;;40.15;24.65;;;;;;;-1.09;91.86;99702.13;1747893;82;21033;-81
2021/11/25 07:44:30;;;;;;;38.10;23.52;;;;;;;-0.98;92.14;99685.79;1748426;82;21047;-81
2021/11/25 07:46:56;;;;;;;42.35;23.20;;;;;;;-0.84;92.27;99694.81;1747675;82;21563;-81
2021/11/25 07:49:24;;;;;;;39.78;24.45;;;;;;;-0.69;92.30;99697.28;1748459;82;20954;-81
2021/11/25 07:51:50;;;;;;;43.68;24.92;;;;;;;-0.57;92.38;99700.73;1747998;82;21062;-81
2021/11/25 07:54:17;;;;;;;39.70;25.30;;;;;;;-0.45;92.36;99692.96;1748141;81;21000;-81
2021/11/25 07:56:43;;;;;;;39.20;24.82;;;;;;;-0.31;92.43;99694.11;1748221;82;20962;-80
2021/11/25 07:59:09;;;;;;;48.08;28.87;;;;;;;-0.19;92.24;99694.11;1747692;82;21037;-81
2021/11/25 08:01:36;;;;;;;37.53;22.80;;;;;;;-0.06;92.19;99680.22;1748313;82;20975;-81
2021/11/25 08:04:02;;;;;;;37.60;25.27;;;;;;;0.08;92.10;99679.66;1748000;82;21073;-81
2021/11/25 08:06:29;;;;;;;41.28;23.50;;;;;;;0.21;91.95;99679.56;1748030;81;21464;-81
2021/11/25 08:08:55;;;;;;;46.63;24.52;;;;;;;0.34;91.80;99680.75;1748463;82;21436;-81
2021/11/25 08:11:21;;;;;;;40.35;23.20;;;;;;;0.45;91.65;99673.36;1747828;82;21473;-81
2021/11/25 08:13:48;;;;;;;38.20;23.60;;;;;;;0.58;91.42;99679.34;1744322;82;20993;-81
2021/11/25 08:16:15;;;;;;;37.93;24.70;;;;;;;0.69;91.36;99675.83;1737007;82;21535;-81
2021/11/25 08:18:45;;;;;;;36.00;22.40;;;;;;;0.80;91.10;99676.23;1737367;82;21052;-81
2021/11/25 08:21:13;;;;;;;43.13;24.80;;;;;;;0.90;90.86;99665.84;1737270;82;21073;-81
2021/11/25 08:23:39;;;;;;;47.00;28.17;;;;;;;1.02;90.74;99659.70;1737025;82;20997;-81
2021/11/25 08:26:07;;;;;;;50.78;30.70;;;;;;;1.12;90.51;99653.22;1737178;82;21017;-81
2021/11/25 08:28:36;;;;;;;39.10;24.02;;;;;;;1.23;90.25;99644.47;1736675;82;21520;-81
2021/11/25 08:31:02;;;;;;;50.45;28.73;;;;;;;1.33;89.92;99643.60;1736903;82;21407;-81
2021/11/25 08:33:28;;;;;;;38.55;23.20;;;;;;;1.41;89.91;99638.88;1737294;82;21025;-80
2021/11/25 08:35:55;;;;;;;42.70;26.23;;;;;;;1.52;89.59;99637.11;1737101;82;21084;-81
2021/11/25 08:38:22;;;;;;;34.48;21.75;;;;;;;1.60;89.58;99642.78;1737097;82;21512;-82
2021/11/25 08:40:48;;;;;;;36.90;23.55;;;;;;;1.68;89.17;99640.69;1736903;82;21056;-81
2021/11/25 08:43:17;;;;;;;41.28;24.37;;;;;;;1.76;89.07;99639.01;1737597;82;20988;-81
2021/11/25 08:45:42;;;;;;;39.45;23.70;;;;;;;1.83;89.18;99637.33;1736736;82;21055;-81
2021/11/25 08:48:08;;;;;;;37.33;23.57;;;;;;;1.93;88.96;99639.50;1737213;82;21045;-81
2021/11/25 08:50:36;;;;;;;44.35;25.23;;;;;;;2.00;88.67;99640.42;1737209;82;21040;-82
2021/11/25 08:53:02;;;;;;;39.48;23.83;;;;;;;2.09;88.62;99635.24;1737355;82;21543;-82
2021/11/25 08:55:34;;;;;;;41.45;24.98;;;;;;;2.17;88.47;99632.26;1737236;82;21013;-81
2021/11/25 08:57:57;;;;;;;36.88;23.80;;;;;;;2.23;88.46;99634.09;1736421;82;21037;-82
2021/11/25 09:00:23;;;;;;;44.20;25.82;;;;;;;2.32;88.15;99631.05;1736956;82;21076;-82
2021/11/25 09:02:51;;;;;;;44.88;24.37;;;;;;;2.39;87.91;99622.47;1737172;82;21001;-82
2021/11/25 09:05:17;;;;;;;47.25;25.90;;;;;;;2.43;87.90;99617.48;1746753;80;21467;-81
2021/11/25 09:07:44;;;;;;;36.42;21.80;;;;;;;2.49;87.58;99614.58;1740645;80;20973;-82
2021/11/25 09:10:11;;;;;;;37.23;22.65;;;;;;;2.55;87.18;99617.34;1715011;82;21013;-83
2021/11/25 09:12:38;;;;;;;39.48;23.67;;;;;;;2.63;87.08;99611.73;1715499;80;21531;-82
2021/11/25 09:15:05;;;;;;;38.42;23.65;;;;;;;2.68;87.07;99607.14;1745365;82;20951;-82
2021/11/25 09:17:31;;;;;;;35.40;22.17;;;;;;;2.73;86.86;99611.63;1747891;82;21476;-82
2021/11/25 09:19:58;;;;;;;41.45;23.18;;;;;;;2.79;86.75;99612.63;1747521;82;21057;-82
2021/11/25 09:22:24;;;;;;;35.38;21.12;;;;;;;2.85;86.57;99595.38;1747891;82;21019;-82
2021/11/25 09:24:51;;;;;;;32.83;21.30;;;;;;;2.95;86.70;99600.94;1748211;82;20986;-81
2021/11/25 09:27:17;;;;;;;35.92;22.80;;;;;;;3.01;86.55;99605.37;1747588;82;21057;-82
2021/11/25 09:29:43;;;;;;;36.13;22.60;;;;;;;3.07;86.31;99595.09;1748217;82;20982;-82
2021/11/25 09:32:10;;;;;;;37.28;23.00;;;;;;;3.15;86.36;99593.36;1747899;82;21440;-82
2021/11/25 09:34:36;;;;;;;38.42;23.20;;;;;;;3.23;86.14;99584.69;1748111;82;21449;-82
2021/11/25 09:37:02;;;;;;;39.75;23.73;;;;;;;3.31;85.93;99574.66;1747707;82;21476;-82
2021/11/25 09:39:29;;;;;;;39.25;22.90;;;;;;;3.39;85.68;99571.63;1747825;82;21033;-82
2021/11/25 09:41:55;;;;;;;35.80;21.93;;;;;;;3.45;85.53;99574.73;1747707;82;21033;-82
2021/11/25 09:44:23;;;;;;;36.77;23.75;;;;;;;3.52;85.24;99562.20;1735880;82;20990;-82
2021/11/25 09:46:53;;;;;;;38.80;23.02;;;;;;;3.61;85.42;99569.98;1744516;82;20963;-82
2021/11/25 09:49:25;;;;;;;36.00;22.22;;;;;;;3.70;85.26;99562.95;1742053;82;21072;-81
2021/11/25 09:51:54;;;;;;;36.73;22.20;;;;;;;3.78;85.10;99550.77;1738564;80;21001;-82
2021/11/25 09:54:20;;;;;;;36.65;22.07;;;;;;;3.86;85.10;99539.44;1740974;82;20995;-82
2021/11/25 09:56:48;;;;;;;34.67;22.75;;;;;;;3.95;84.88;99548.05;1743146;80;21424;-82
2021/11/25 09:59:15;;;;;;;35.25;22.60;;;;;;;4.02;84.60;99547.23;1742925;80;21060;-82
2021/11/25 10:01:41;;;;;;;31.82;21.45;;;;;;;4.09;84.43;99542.86;1742161;82;20981;-81
2021/11/25 10:04:08;;;;;;;37.80;23.22;;;;;;;4.17;83.97;99547.62;1744819;82;21034;-83
2021/11/25 10:06:48;;;;;;;35.08;22.98;;;;;;;4.21;83.87;99535.63;1744322;82;20947;-82
2021/11/25 10:09:14;;;;;;;33.83;21.80;;;;;;;4.30;83.60;99538.61;1739953;82;20994;-82
2021/11/25 10:11:41;;;;;;;35.48;21.97;;;;;;;4.34;83.22;99523.95;1744653;81;21465;-82
2021/11/25 10:14:12;;;;;;;34.98;23.12;;;;;;;4.40;83.19;99513.63;1742632;82;21006;-82
2021/11/25 10:16:46;;;;;;;32.00;20.35;;;;;;;4.45;83.11;99516.34;1740174;82;21544;-82
2021/11/25 10:19:17;;;;;;;36.48;21.60;;;;;;;4.51;82.81;99511.22;1743350;82;21493;-82
2021/11/25 10:21:53;;;;;;;35.15;21.40;;;;;;;4.54;82.62;99512.34;1743511;82;21021;-81
2021/11/25 10:24:38;;;;;;;32.83;20.77;;;;;;;4.55;82.15;99509.26;1744171;82;20931;-82
2021/11/25 10:27:25;;;;;;;34.53;21.10;;;;;;;4.56;82.13;99514.38;1740311;82;20974;-81
2021/11/25 10:30:13;;;;;;;33.08;21.57;;;;;;;4.58;82.35;99519.05;1742476;82;21019;-82
2021/11/25 10:32:39;;;;;;;35.70;21.52;;;;;;;4.62;82.37;99511.39;1738866;82;21022;-82
2021/11/25 10:35:29;;;;;;;35.35;21.65;;;;;;;4.67;82.34;99508.48;1742050;82;20965;-82
2021/11/25 10:38:22;;;;;;;38.55;22.98;;;;;;;4.74;82.41;99503.28;1741102;82;21052;-82
2021/11/25 10:40:34;;;;;;;34.23;23.22;;;;;;;4.85;82.67;99496.08;1725746;82;21166;-82
2021/11/25 10:42:57;;;;;;;33.55;22.65;;;;;;;4.93;82.25;99487.27;1740257;82;21061;-82
2021/11/25 10:45:25;;;;;;;34.80;22.30;;;;;;;4.99;81.53;99492.13;1743544;82;20990;-83
2021/11/25 10:47:59;;;;;;;35.40;21.48;;;;;;;5.03;81.88;99496.22;1740551;82;21001;-82
2021/11/25 10:50:29;;;;;;;32.25;20.37;;;;;;;5.09;81.62;99484.06;1743090;81;20922;-82
2021/11/25 10:53:07;;;;;;;35.80;21.62;;;;;;;5.13;81.51;99483.40;1745698;81;21040;-82
2021/11/25 10:55:35;;;;;;;36.55;22.73;;;;;;;5.16;81.03;99479.28;1756898;81;21643;-82
2021/11/25 10:58:05;;;;;;;37.48;25.97;;;;;;;5.17;80.98;99494.06;1754584;81;20989;-82
2021/11/25 11:00:39;;;;;;;34.80;22.15;;;;;;;5.14;80.62;99486.41;1750076;80;21058;-82
2021/11/25 11:03:23;;;;;;;34.92;22.25;;;;;;;5.06;80.32;99489.48;1737598;80;21036;-82
2021/11/25 11:05:58;;;;;;;40.45;25.40;;;;;;;4.98;80.00;99493.55;1740898;82;21077;-82
2021/11/25 11:08:31;;;;;;;41.30;25.45;;;;;;;4.90;80.15;99483.54;1743253;80;20981;-83
2021/11/25 11:11:02;;;;;;;34.45;22.17;;;;;;;4.87;80.60;99475.89;1753684;80;20998;-82
2021/11/25 11:16:22;;;;;;;36.60;21.48;;;;;;;4.80;80.43;99474.59;1746744;80;21052;-82
2021/11/25 11:19:00;;;;;;;35.30;23.47;;;;;;;4.79;80.27;99471.62;1750533;80;21064;-82
2021/11/25 11:21:37;;;;;;;34.98;21.82;;;;;;;4.75;79.95;99467.53;1719522;80;21590;-82
2021/11/25 11:24:11;;;;;;;34.15;21.80;;;;;;;4.72;79.90;99462.48;1765279;81;21056;-82
2021/11/25 11:26:46;;;;;;;37.03;21.57;;;;;;;4.70;79.98;99458.20;1756924;81;20946;-82
2021/11/25 11:29:18;;;;;;;34.30;20.48;;;;;;;4.69;79.79;99456.98;1748058;81;20993;-82